Time;durP1;ratioP1;P1;durP2;ratioP2;P2;SDS_P1;SDS_P2;PMS_P1;PMS_P2;Temp;Humidity;BMP_temperature;BMP_pressure;BME280_temperature;BME280_humidity;BME280_pressure;Samples;Min_cycle;Max_cycle;Signal;HPM_P1;HPM_P2
2021/12/26 00:02:11;;;;;;;11.18;9.25;;;4.00;99.90;;;;;;5051168;28;20204;-75
2021/12/26 00:04:38;;;;;;;15.95;9.40;;;4.00;99.90;;;;;;5051410;28;20243;-75
2021/12/26 00:07:05;;;;;;;14.68;9.68;;;4.00;99.90;;;;;;5051691;28;20216;-75
2021/12/26 00:09:32;;;;;;;14.25;8.60;;;4.10;99.90;;;;;;5051274;28;20205;-75
2021/12/26 00:11:58;;;;;;;17.35;10.07;;;4.10;99.90;;;;;;5051491;28;20205;-75
2021/12/26 00:14:27;;;;;;;15.13;10.13;;;4.00;99.90;;;;;;5051631;28;20248;-75
2021/12/26 00:16:53;;;;;;;17.35;9.27;;;4.10;99.90;;;;;;5052391;28;20201;-75
2021/12/26 00:19:20;;;;;;;23.00;10.40;;;4.10;99.90;;;;;;5052079;28;20232;-75
2021/12/26 00:21:48;;;;;;;15.82;9.55;;;4.10;99.90;;;;;;5051362;28;20210;-75
2021/12/26 00:24:15;;;;;;;22.40;9.95;;;4.00;99.90;;;;;;5051967;28;20321;-76
2021/12/26 00:26:41;;;;;;;18.20;10.15;;;4.00;99.90;;;;;;5052000;28;20205;-75
2021/12/26 00:29:08;;;;;;;15.30;10.65;;;4.00;99.90;;;;;;5052351;28;20684;-74
2021/12/26 00:31:37;;;;;;;18.23;9.48;;;4.00;99.90;;;;;;5051427;28;20205;-75
2021/12/26 00:34:04;;;;;;;24.02;10.35;;;4.00;99.90;;;;;;5051525;28;20227;-75
2021/12/26 00:36:32;;;;;;;16.70;10.88;;;4.10;99.90;;;;;;5051771;28;20209;-74
2021/12/26 00:38:58;;;;;;;12.45;9.30;;;4.00;99.90;;;;;;5052656;28;20209;-75
2021/12/26 00:41:25;;;;;;;17.48;11.27;;;4.00;99.90;;;;;;5052376;28;20205;-74
2021/12/26 00:43:53;;;;;;;13.55;9.70;;;4.00;99.90;;;;;;5053156;28;20225;-76
2021/12/26 00:46:19;;;;;;;15.50;10.80;;;4.00;99.90;;;;;;5053285;28;20657;-77
2021/12/26 00:48:47;;;;;;;19.05;9.73;;;4.00;99.90;;;;;;5053238;28;20209;-74
2021/12/26 00:51:14;;;;;;;16.58;10.05;;;4.00;99.90;;;;;;5052125;28;20200;-74
2021/12/26 00:53:41;;;;;;;13.95;10.18;;;4.00;99.90;;;;;;5052385;28;20220;-74
2021/12/26 00:56:08;;;;;;;23.48;11.90;;;4.00;99.90;;;;;;5051218;28;20783;-74
2021/12/26 00:58:35;;;;;;;43.20;13.15;;;4.00;99.90;;;;;;5051093;28;20845;-74
2021/12/26 01:01:02;;;;;;;16.33;10.10;;;4.00;99.90;;;;;;5051052;28;20259;-74
2021/12/26 01:03:29;;;;;;;20.40;10.95;;;4.00;99.90;;;;;;5050819;28;20231;-74
2021/12/26 01:05:59;;;;;;;29.30;11.30;;;4.00;99.90;;;;;;5051183;28;20576;-74
2021/12/26 01:08:30;;;;;;;17.02;10.90;;;4.00;99.90;;;;;;5050880;28;20201;-73
2021/12/26 01:10:59;;;;;;;25.85;11.95;;;4.00;99.90;;;;;;5050109;28;20202;-73
2021/12/26 01:13:30;;;;;;;23.73;11.10;;;4.00;99.90;;;;;;5050930;28;20658;-74
2021/12/26 01:16:00;;;;;;;22.10;10.27;;;3.90;99.90;;;;;;5051864;28;20263;-74
2021/12/26 01:18:31;;;;;;;12.32;9.45;;;3.90;99.90;;;;;;5050944;28;20292;-74
2021/12/26 01:21:04;;;;;;;15.45;11.27;;;4.00;99.90;;;;;;5050053;28;20228;-74
2021/12/26 01:23:31;;;;;;;15.40;10.60;;;4.00;99.90;;;;;;5051149;28;20263;-74
2021/12/26 01:25:58;;;;;;;19.70;11.07;;;3.90;99.90;;;;;;5049880;28;20205;-74
2021/12/26 01:28:28;;;;;;;21.73;10.90;;;4.00;99.90;;;;;;5049686;28;20205;-74
2021/12/26 01:30:55;;;;;;;21.23;11.90;;;4.00;99.90;;;;;;5049216;28;20193;-74
2021/12/26 01:33:22;;;;;;;15.60;10.75;;;4.00;99.90;;;;;;5049489;28;20228;-74
2021/12/26 01:35:49;;;;;;;14.98;9.10;;;4.00;99.90;;;;;;5049898;28;20822;-74
2021/12/26 01:38:18;;;;;;;18.52;11.27;;;4.00;99.90;;;;;;5049208;28;20220;-74
2021/12/26 01:40:49;;;;;;;18.52;10.45;;;3.90;99.90;;;;;;5051736;28;20236;-74
2021/12/26 01:43:16;;;;;;;13.75;10.25;;;3.90;99.90;;;;;;5049845;28;20221;-74
2021/12/26 01:45:44;;;;;;;14.13;10.32;;;3.90;99.90;;;;;;5049652;28;20203;-74
2021/12/26 01:48:12;;;;;;;22.20;11.30;;;3.90;99.90;;;;;;5049659;28;20220;-74
2021/12/26 01:50:39;;;;;;;23.05;11.43;;;3.90;99.90;;;;;;5049064;28;20258;-74
2021/12/26 01:53:06;;;;;;;18.60;10.88;;;3.90;99.90;;;;;;5048965;28;20256;-74
2021/12/26 01:55:41;;;;;;;18.88;10.20;;;3.90;99.90;;;;;;5048850;28;20212;-74
2021/12/26 01:58:10;;;;;;;12.90;9.40;;;3.90;99.90;;;;;;5049236;28;20211;-74
2021/12/26 02:00:38;;;;;;;15.30;9.75;;;3.80;99.90;;;;;;5048571;28;20231;-74
2021/12/26 02:03:05;;;;;;;18.13;10.40;;;3.90;99.90;;;;;;5048779;28;20228;-74
2021/12/26 02:05:32;;;;;;;13.32;9.35;;;3.90;99.90;;;;;;5048990;28;20205;-74
2021/12/26 02:07:59;;;;;;;12.73;9.55;;;3.90;99.90;;;;;;5050237;28;20228;-74
2021/12/26 02:10:26;;;;;;;14.32;9.95;;;3.90;99.90;;;;;;5050354;28;20204;-74
2021/12/26 02:12:54;;;;;;;13.80;9.65;;;3.90;99.90;;;;;;5049814;28;20221;-74
2021/12/26 02:15:21;;;;;;;14.52;8.80;;;3.80;99.90;;;;;;5050264;28;20205;-74
2021/12/26 02:17:49;;;;;;;11.48;9.10;;;3.80;99.90;;;;;;5050556;28;20205;-74
2021/12/26 02:20:26;;;;;;;17.05;9.50;;;3.80;99.90;;;;;;5050232;28;20593;-74
2021/12/26 02:22:58;;;;;;;11.57;8.40;;;3.80;99.90;;;;;;5049930;28;20227;-74
2021/12/26 02:27:30;;;;;;;18.20;9.10;;;3.80;99.90;;;;;;5049519;28;20675;-74
2021/12/26 02:28:17;;;;;;;17.50;9.55;;;3.80;99.90;;;;;;5049625;28;20205;-74
2021/12/26 02:30:44;;;;;;;11.00;8.07;;;3.80;99.90;;;;;;5049212;28;20205;-74
2021/12/26 02:33:12;;;;;;;23.30;8.20;;;3.90;99.90;;;;;;5049871;28;20225;-74
2021/12/26 02:35:41;;;;;;;11.60;8.60;;;3.80;99.90;;;;;;5049535;28;20332;-74
2021/12/26 02:40:46;;;;;;;11.88;8.55;;;3.80;99.90;;;;;;5096476;22;20229;-75
2021/12/26 02:43:15;;;;;;;12.32;8.68;;;3.90;99.90;;;;;;5049509;28;20248;-75
2021/12/26 02:45:42;;;;;;;10.90;7.90;;;3.90;99.90;;;;;;5051296;28;20219;-76
2021/12/26 02:48:10;;;;;;;14.30;9.00;;;3.90;99.90;;;;;;5050450;28;20201;-75
2021/12/26 02:50:38;;;;;;;9.55;7.55;;;3.90;99.90;;;;;;5051049;28;20205;-75
2021/12/26 02:53:08;;;;;;;10.55;7.63;;;3.90;99.90;;;;;;5049941;28;20229;-75
2021/12/26 02:55:35;;;;;;;9.75;7.43;;;3.90;99.90;;;;;;5051060;28;20695;-75
2021/12/26 02:58:10;;;;;;;10.05;6.85;;;3.90;99.90;;;;;;5050818;28;20201;-76
2021/12/26 03:00:41;;;;;;;11.80;6.82;;;3.90;99.90;;;;;;5050719;28;20221;-76
2021/12/26 03:03:09;;;;;;;9.38;6.53;;;3.90;99.90;;;;;;5050443;28;20734;-76
2021/12/26 03:05:39;;;;;;;9.38;7.50;;;3.90;99.90;;;;;;5050653;28;20201;-75
2021/12/26 03:08:11;;;;;;;12.25;8.43;;;3.90;99.90;;;;;;5050787;28;20208;-75
2021/12/26 03:10:39;;;;;;;8.95;6.85;;;3.80;99.90;;;;;;5050540;28;20204;-76
2021/12/26 03:13:09;;;;;;;10.52;7.25;;;3.90;99.90;;;;;;5050207;28;20655;-76
2021/12/26 03:15:37;;;;;;;12.18;7.13;;;3.90;99.90;;;;;;5050715;28;20251;-76
2021/12/26 03:18:04;;;;;;;8.82;6.60;;;3.90;99.90;;;;;;5050591;28;20208;-76
2021/12/26 03:20:34;;;;;;;12.52;7.72;;;3.80;99.90;;;;;;5050583;28;20637;-75
2021/12/26 03:23:02;;;;;;;10.50;7.28;;;3.80;99.90;;;;;;5049885;28;20217;-76
2021/12/26 03:25:32;;;;;;;12.90;8.82;;;3.90;99.90;;;;;;5050552;28;20209;-75
2021/12/26 03:27:59;;;;;;;11.27;7.47;;;3.90;99.90;;;;;;5050459;28;20193;-76
2021/12/26 03:30:28;;;;;;;11.30;7.35;;;3.90;99.90;;;;;;5050492;28;20700;-76
2021/12/26 03:32:59;;;;;;;9.48;7.10;;;3.80;99.90;;;;;;5050004;28;20221;-76
2021/12/26 03:35:28;;;;;;;14.23;8.00;;;3.80;99.90;;;;;;5050224;28;20209;-75
2021/12/26 03:37:56;;;;;;;10.13;8.15;;;3.80;99.90;;;;;;5049362;28;20225;-76
2021/12/26 03:40:23;;;;;;;10.93;7.50;;;3.90;99.90;;;;;;5047017;28;20629;-76
2021/12/26 03:42:53;;;;;;;10.30;7.82;;;3.90;99.90;;;;;;5049763;28;20216;-76
2021/12/26 03:45:21;;;;;;;11.43;7.93;;;3.90;99.90;;;;;;5051344;28;20213;-75
2021/12/26 03:47:50;;;;;;;11.57;7.28;;;3.90;99.90;;;;;;5050191;28;20204;-75
2021/12/26 03:50:18;;;;;;;11.43;7.95;;;3.90;99.90;;;;;;5050011;28;20204;-76
2021/12/26 03:52:45;;;;;;;10.07;7.22;;;3.90;99.90;;;;;;5057112;28;20205;-74
2021/12/26 03:55:12;;;;;;;9.43;7.05;;;3.90;99.90;;;;;;5057651;28;20201;-76
2021/12/26 03:57:38;;;;;;;13.27;8.68;;;3.90;99.90;;;;;;5049626;28;20564;-76
2021/12/26 04:00:08;;;;;;;11.30;8.20;;;3.90;99.90;;;;;;5049773;28;20208;-76
2021/12/26 04:02:35;;;;;;;10.88;8.25;;;3.90;99.90;;;;;;5049430;28;20227;-76
2021/12/26 04:05:02;;;;;;;13.35;8.40;;;3.90;99.90;;;;;;5049518;28;20204;-76
2021/12/26 04:07:28;;;;;;;13.25;8.63;;;3.90;99.90;;;;;;5049779;28;20205;-76
2021/12/26 04:09:55;;;;;;;10.45;7.80;;;3.80;99.90;;;;;;5049477;28;20684;-75
2021/12/26 04:12:22;;;;;;;11.45;7.65;;;3.90;99.90;;;;;;5049195;28;20612;-75
2021/12/26 04:14:49;;;;;;;10.88;7.70;;;3.90;99.90;;;;;;5049545;28;20225;-76
2021/12/26 04:17:17;;;;;;;12.02;8.35;;;3.90;99.90;;;;;;5049464;28;20235;-75
2021/12/26 04:19:43;;;;;;;11.23;8.43;;;3.90;99.90;;;;;;5049858;28;20208;-76
2021/12/26 04:22:10;;;;;;;12.02;8.85;;;3.90;99.90;;;;;;5048666;28;20221;-76
2021/12/26 04:24:37;;;;;;;10.98;8.30;;;3.90;99.90;;;;;;5049555;28;20217;-75
2021/12/26 04:27:04;;;;;;;12.23;8.30;;;3.90;99.90;;;;;;5049519;28;20739;-76
2021/12/26 04:29:31;;;;;;;9.70;7.18;;;3.90;99.90;;;;;;5049609;28;20205;-76
2021/12/26 04:31:57;;;;;;;11.93;8.50;;;3.90;99.90;;;;;;5049301;28;20208;-76
2021/12/26 04:34:25;;;;;;;9.82;7.57;;;3.90;99.90;;;;;;5048882;28;20243;-76
2021/12/26 04:36:52;;;;;;;9.60;7.60;;;3.90;99.90;;;;;;5049742;28;20688;-76
2021/12/26 04:39:19;;;;;;;9.43;6.00;;;3.90;99.90;;;;;;5048937;28;20213;-75
2021/12/26 04:41:46;;;;;;;9.93;7.47;;;3.90;99.90;;;;;;5048914;28;20228;-75
2021/12/26 04:44:13;;;;;;;8.82;6.30;;;3.90;99.90;;;;;;5049504;28;20225;-76
2021/12/26 04:46:40;;;;;;;9.88;7.65;;;3.90;99.90;;;;;;5052976;28;20663;-75
2021/12/26 04:49:07;;;;;;;10.48;8.38;;;3.90;99.90;;;;;;5053465;28;20232;-75
2021/12/26 04:51:35;;;;;;;10.45;8.00;;;3.90;99.90;;;;;;5052640;28;20197;-75
2021/12/26 04:54:02;;;;;;;10.65;7.47;;;3.90;99.90;;;;;;5053429;28;20229;-76
2021/12/26 04:56:28;;;;;;;11.93;7.65;;;3.90;99.90;;;;;;5053219;28;20212;-74
2021/12/26 04:58:55;;;;;;;8.43;6.70;;;3.90;99.90;;;;;;5052922;28;20208;-75
2021/12/26 05:01:22;;;;;;;12.93;8.20;;;3.90;99.90;;;;;;5052674;28;20570;-75
2021/12/26 05:03:49;;;;;;;9.25;7.55;;;3.90;99.90;;;;;;5052764;28;20228;-75
2021/12/26 05:06:16;;;;;;;8.82;7.03;;;3.90;99.90;;;;;;5053057;28;20208;-76
2021/12/26 05:08:44;;;;;;;11.32;8.45;;;3.90;99.90;;;;;;5053176;28;20208;-75
2021/12/26 05:11:11;;;;;;;11.07;8.60;;;3.90;99.90;;;;;;5052042;28;20205;-77
2021/12/26 05:13:37;;;;;;;10.95;7.53;;;3.90;99.90;;;;;;5053018;28;20231;-76
2021/12/26 05:16:05;;;;;;;11.00;7.55;;;3.90;99.90;;;;;;5052665;28;20201;-77
2021/12/26 05:18:31;;;;;;;11.30;7.93;;;3.90;99.90;;;;;;5052967;28;20609;-77
2021/12/26 05:20:58;;;;;;;12.10;7.50;;;3.90;99.90;;;;;;5052360;28;20221;-76
2021/12/26 05:23:25;;;;;;;11.60;8.20;;;3.90;99.90;;;;;;5052159;28;20229;-76
2021/12/26 05:25:53;;;;;;;11.85;7.57;;;3.90;99.90;;;;;;5052693;28;20209;-77
2021/12/26 05:28:20;;;;;;;11.18;8.50;;;3.90;99.90;;;;;;5052195;28;20205;-77
2021/12/26 05:30:46;;;;;;;11.90;7.38;;;3.90;99.90;;;;;;5052700;28;20201;-76
2021/12/26 05:33:14;;;;;;;12.10;7.82;;;3.90;99.90;;;;;;5051853;28;20734;-77
2021/12/26 05:35:40;;;;;;;12.73;8.50;;;3.90;99.90;;;;;;5052595;28;20687;-77
2021/12/26 05:38:07;;;;;;;11.63;7.95;;;3.90;99.90;;;;;;5052473;28;20589;-77
2021/12/26 05:40:34;;;;;;;14.02;7.85;;;3.90;99.90;;;;;;5052149;28;20221;-76
2021/12/26 05:43:02;;;;;;;14.00;8.63;;;3.90;99.90;;;;;;5051755;28;20232;-77
2021/12/26 05:45:29;;;;;;;11.80;8.15;;;3.90;99.90;;;;;;5052176;28;20213;-76
2021/12/26 05:47:56;;;;;;;12.77;8.95;;;3.90;99.90;;;;;;5052901;28;20209;-76
2021/12/26 05:50:22;;;;;;;12.80;8.80;;;4.00;99.90;;;;;;5052466;28;20205;-77
2021/12/26 05:52:49;;;;;;;11.20;8.10;;;4.00;99.90;;;;;;5051329;28;20712;-77
2021/12/26 05:55:17;;;;;;;14.48;9.82;;;4.00;99.90;;;;;;5052105;28;20215;-77
2021/12/26 05:57:43;;;;;;;10.13;7.15;;;4.00;99.90;;;;;;5051889;28;20208;-77
2021/12/26 06:00:14;;;;;;;18.30;9.02;;;4.00;99.90;;;;;;5052142;28;20695;-77
2021/12/26 06:02:41;;;;;;;11.75;8.07;;;4.10;99.90;;;;;;5051406;28;20217;-76
2021/12/26 06:05:08;;;;;;;13.25;8.10;;;4.00;99.90;;;;;;5051896;28;20201;-77
2021/12/26 06:07:36;;;;;;;14.93;7.70;;;4.00;99.90;;;;;;5051946;28;20205;-77
2021/12/26 06:10:04;;;;;;;13.80;9.45;;;3.90;99.90;;;;;;5051763;28;20217;-77
2021/12/26 06:12:31;;;;;;;23.23;9.95;;;3.90;99.90;;;;;;5051300;28;20287;-77
2021/12/26 06:14:57;;;;;;;12.38;8.85;;;3.90;99.90;;;;;;5052583;28;20197;-77
2021/12/26 06:17:25;;;;;;;14.23;9.15;;;3.90;99.90;;;;;;5054045;28;20212;-77
2021/12/26 06:19:52;;;;;;;17.70;8.95;;;3.90;99.90;;;;;;5054473;28;20205;-77
2021/12/26 06:22:19;;;;;;;15.02;9.23;;;4.00;99.90;;;;;;5050792;28;20229;-77
2021/12/26 06:24:45;;;;;;;15.50;9.70;;;4.00;99.90;;;;;;5051697;28;20227;-78
2021/12/26 06:27:12;;;;;;;13.60;9.02;;;4.00;99.90;;;;;;5051167;28;20247;-78
2021/12/26 06:29:39;;;;;;;16.20;8.90;;;4.00;99.90;;;;;;5051644;28;20595;-78
2021/12/26 06:32:06;;;;;;;13.80;8.93;;;4.00;99.90;;;;;;5051057;28;20212;-77
2021/12/26 06:34:34;;;;;;;14.20;8.82;;;3.90;99.90;;;;;;5050872;28;20228;-78
2021/12/26 06:37:01;;;;;;;12.55;8.10;;;4.00;99.90;;;;;;5051543;28;20204;-78
2021/12/26 06:39:28;;;;;;;17.50;9.25;;;4.00;99.90;;;;;;5050822;28;20816;-78
2021/12/26 06:41:54;;;;;;;15.30;9.35;;;3.90;99.90;;;;;;5050841;28;20715;-78
2021/12/26 06:44:21;;;;;;;13.98;9.68;;;4.00;99.90;;;;;;5051191;28;20232;-78
2021/12/26 06:46:48;;;;;;;15.18;9.45;;;3.90;99.90;;;;;;5051078;28;20595;-78
2021/12/26 06:49:17;;;;;;;28.95;10.93;;;3.90;99.90;;;;;;5051427;28;20605;-79
2021/12/26 06:51:47;;;;;;;22.15;11.38;;;4.00;99.90;;;;;;5050770;28;20668;-77
2021/12/26 06:54:14;;;;;;;19.42;10.75;;;4.00;99.90;;;;;;5051189;28;20225;-78
2021/12/26 06:56:41;;;;;;;21.88;11.05;;;4.00;99.90;;;;;;5052651;28;20201;-78
2021/12/26 06:59:08;;;;;;;14.70;9.35;;;4.00;99.90;;;;;;5050761;28;20292;-78
2021/12/26 07:01:35;;;;;;;14.80;10.20;;;4.00;99.90;;;;;;5050280;28;20216;-78
2021/12/26 07:04:02;;;;;;;17.95;10.25;;;4.00;99.90;;;;;;5050591;28;20232;-78
2021/12/26 07:06:28;;;;;;;16.73;10.63;;;4.00;99.90;;;;;;5050836;28;20568;-78
2021/12/26 07:08:57;;;;;;;15.85;8.90;;;4.00;99.90;;;;;;5050249;28;20568;-77
2021/12/26 07:11:23;;;;;;;13.57;9.23;;;4.10;99.90;;;;;;5049985;28;20656;-78
2021/12/26 07:13:50;;;;;;;16.75;9.35;;;4.10;99.90;;;;;;5050853;28;20258;-77
2021/12/26 07:16:17;;;;;;;14.88;9.05;;;4.10;99.90;;;;;;5050276;28;20209;-77
2021/12/26 07:18:44;;;;;;;13.45;9.90;;;4.10;99.90;;;;;;5050834;28;20212;-77
2021/12/26 07:21:10;;;;;;;15.38;9.10;;;4.10;99.90;;;;;;5049879;28;20203;-77
2021/12/26 07:23:37;;;;;;;16.48;10.18;;;4.10;99.90;;;;;;5050279;28;20223;-80
2021/12/26 07:26:05;;;;;;;15.73;10.23;;;4.10;99.90;;;;;;5050781;28;20205;-78
2021/12/26 07:28:32;;;;;;;17.30;11.00;;;4.10;99.90;;;;;;5050233;28;20209;-78
2021/12/26 07:30:59;;;;;;;16.55;10.13;;;4.10;99.90;;;;;;5050233;28;20204;-77
2021/12/26 07:33:25;;;;;;;13.02;9.38;;;4.10;99.90;;;;;;5049961;28;20228;-76
2021/12/26 07:35:52;;;;;;;12.90;9.10;;;4.10;99.90;;;;;;5050625;28;20204;-78
2021/12/26 07:38:19;;;;;;;12.85;8.98;;;4.20;99.90;;;;;;5050591;28;20200;-78
2021/12/26 07:40:46;;;;;;;18.27;10.70;;;4.20;99.90;;;;;;5021207;28;20221;-76
2021/12/26 07:43:14;;;;;;;13.35;10.45;;;4.20;99.90;;;;;;5026439;28;20661;-77
2021/12/26 07:45:41;;;;;;;15.25;9.23;;;4.30;99.90;;;;;;5026981;28;20594;-78
2021/12/26 07:48:08;;;;;;;16.58;10.02;;;4.30;99.90;;;;;;5027586;28;20198;-77
2021/12/26 07:50:35;;;;;;;14.30;9.82;;;4.30;99.90;;;;;;5018437;28;20209;-79
2021/12/26 07:53:07;;;;;;;15.75;10.90;;;4.40;99.90;;;;;;5029470;28;20253;-78
2021/12/26 07:55:33;;;;;;;17.90;10.10;;;4.40;99.90;;;;;;5030428;28;20672;-78
2021/12/26 07:58:01;;;;;;;16.35;10.27;;;4.50;99.90;;;;;;5030170;28;20213;-77
2021/12/26 08:00:29;;;;;;;16.23;9.93;;;4.50;99.90;;;;;;5030304;28;20214;-78
2021/12/26 08:02:58;;;;;;;17.02;11.05;;;4.50;99.90;;;;;;5029846;28;20226;-78
2021/12/26 08:05:25;;;;;;;17.17;10.07;;;4.60;99.90;;;;;;5029842;28;20283;-78
2021/12/26 08:07:52;;;;;;;14.18;9.77;;;4.60;99.90;;;;;;5030387;28;20205;-76
2021/12/26 08:10:19;;;;;;;18.55;13.30;;;4.70;99.90;;;;;;5029076;28;20464;-74
2021/12/26 08:12:45;;;;;;;15.95;12.00;;;4.70;99.90;;;;;;5029801;28;20197;-73
2021/12/26 08:15:12;;;;;;;17.10;12.30;;;4.80;99.90;;;;;;5029837;28;20252;-73
2021/12/26 08:17:40;;;;;;;16.65;11.35;;;4.80;99.90;;;;;;5030088;28;20201;-74
2021/12/26 08:20:08;;;;;;;17.73;11.32;;;4.90;99.90;;;;;;5032199;28;20217;-72
2021/12/26 08:22:35;;;;;;;17.90;11.35;;;4.80;99.90;;;;;;5032793;28;20240;-72
2021/12/26 08:25:02;;;;;;;19.17;12.50;;;4.90;99.90;;;;;;5034253;28;20202;-72
2021/12/26 08:27:29;;;;;;;16.45;11.05;;;4.80;99.90;;;;;;5033747;28;20285;-73
2021/12/26 08:29:56;;;;;;;15.50;11.52;;;4.80;99.90;;;;;;5034037;28;20209;-73
2021/12/26 08:32:22;;;;;;;14.05;10.73;;;4.80;99.90;;;;;;5033258;28;20554;-73
2021/12/26 08:34:51;;;;;;;19.23;12.70;;;4.90;99.90;;;;;;5033427;28;20232;-72
2021/12/26 08:37:18;;;;;;;17.30;11.00;;;4.80;99.90;;;;;;5033495;28;20205;-73
2021/12/26 08:39:48;;;;;;;17.35;12.27;;;4.90;99.90;;;;;;5067016;22;20229;-92
2021/12/26 08:42:15;;;;;;;16.15;11.32;;;4.80;99.90;;;;;;5057514;28;20224;-91
2021/12/26 08:44:42;;;;;;;17.73;11.40;;;4.90;99.90;;;;;;5059024;28;20209;-92
2021/12/26 08:47:11;;;;;;;17.20;12.20;;;4.90;99.90;;;;;;5040342;22;20232;-75
2021/12/26 08:49:38;;;;;;;15.70;10.73;;;4.90;99.90;;;;;;5013614;28;20208;-75
2021/12/26 08:52:08;;;;;;;15.43;10.40;;;4.90;99.90;;;;;;5024741;28;20205;-75
2021/12/26 08:54:36;;;;;;;14.65;10.85;;;4.90;99.90;;;;;;5031249;28;20232;-75
2021/12/26 08:57:04;;;;;;;15.80;11.45;;;4.90;99.90;;;;;;5029931;28;20217;-75
2021/12/26 08:59:31;;;;;;;18.05;12.10;;;4.90;99.90;;;;;;5031834;28;20210;-75
2021/12/26 09:01:59;;;;;;;16.02;10.00;;;5.00;99.90;;;;;;5031343;28;20232;-75
2021/12/26 09:04:26;;;;;;;14.30;10.30;;;5.00;99.90;;;;;;5031221;28;20300;-75
2021/12/26 09:06:53;;;;;;;14.52;9.75;;;5.00;99.90;;;;;;5046900;28;20240;-75
2021/12/26 09:09:22;;;;;;;14.40;10.73;;;5.00;99.90;;;;;;5052191;28;20275;-75
2021/12/26 09:11:49;;;;;;;14.40;9.98;;;5.10;99.90;;;;;;5050964;28;20246;-74
2021/12/26 09:14:16;;;;;;;13.60;11.10;;;5.10;99.90;;;;;;5054028;28;20225;-75
2021/12/26 09:16:43;;;;;;;13.48;10.43;;;5.10;99.90;;;;;;5053716;28;20205;-75
2021/12/26 09:19:10;;;;;;;13.68;10.05;;;5.10;99.90;;;;;;5052206;28;20335;-74
2021/12/26 09:21:37;;;;;;;12.15;9.55;;;5.10;99.90;;;;;;5051214;28;20285;-75
2021/12/26 09:24:06;;;;;;;15.93;10.52;;;5.10;99.90;;;;;;5051220;28;20316;-75
2021/12/26 09:26:34;;;;;;;14.32;9.98;;;5.10;99.90;;;;;;5052824;28;20231;-75
2021/12/26 09:29:01;;;;;;;17.27;10.95;;;5.10;99.90;;;;;;5053679;28;20220;-75
2021/12/26 09:31:28;;;;;;;13.25;9.95;;;5.10;99.90;;;;;;5051740;28;20263;-74
2021/12/26 09:33:55;;;;;;;14.02;10.10;;;5.10;99.90;;;;;;5051381;28;20282;-74
2021/12/26 09:36:22;;;;;;;11.93;9.60;;;5.20;99.90;;;;;;5052942;28;20197;-74
2021/12/26 09:38:49;;;;;;;14.77;11.02;;;5.20;99.90;;;;;;5041669;28;20216;-74
2021/12/26 09:41:16;;;;;;;15.93;11.63;;;5.30;99.90;;;;;;5028393;28;20198;-74
2021/12/26 09:43:44;;;;;;;13.52;11.00;;;5.30;99.90;;;;;;5033403;28;20233;-74
2021/12/26 09:46:11;;;;;;;15.90;11.20;;;5.30;99.90;;;;;;5032160;28;20328;-75
2021/12/26 09:48:38;;;;;;;15.20;10.50;;;5.30;99.90;;;;;;5031232;28;20210;-75
2021/12/26 09:51:06;;;;;;;16.13;11.23;;;5.40;99.90;;;;;;5031123;28;20684;-75
2021/12/26 09:53:38;;;;;;;16.25;10.90;;;5.40;99.90;;;;;;5030687;28;20225;-73
2021/12/26 09:56:07;;;;;;;13.18;10.02;;;5.40;99.90;;;;;;5029424;28;20193;-74
2021/12/26 09:58:34;;;;;;;10.40;9.20;;;5.40;99.90;;;;;;5030868;28;20562;-74
2021/12/26 10:01:03;;;;;;;13.70;10.30;;;5.40;99.90;;;;;;5031580;28;20213;-75
2021/12/26 10:03:34;;;;;;;14.10;9.85;;;5.50;99.90;;;;;;5029635;28;20300;-75
2021/12/26 10:06:11;;;;;;;15.50;9.52;;;5.70;99.90;;;;;;5029711;28;20213;-75
2021/12/26 10:08:56;;;;;;;14.80;10.75;;;5.80;99.90;;;;;;5029164;28;20202;-74
2021/12/26 10:11:26;;;;;;;12.68;10.02;;;5.90;99.90;;;;;;5027565;28;20201;-74
2021/12/26 10:13:56;;;;;;;14.05;10.63;;;6.10;99.90;;;;;;5028826;28;20224;-75
2021/12/26 10:16:26;;;;;;;16.27;11.68;;;6.30;99.90;;;;;;5030013;28;20303;-75
2021/12/26 10:18:53;;;;;;;14.10;10.80;;;6.60;99.90;;;;;;5030272;28;20237;-75
2021/12/26 10:21:29;;;;;;;13.00;10.25;;;6.80;99.90;;;;;;5023585;28;20293;-75
2021/12/26 10:23:58;;;;;;;11.43;9.77;;;7.10;99.90;;;;;;5029939;28;20224;-75
2021/12/26 10:26:26;;;;;;;12.48;9.65;;;7.20;99.90;;;;;;5030304;28;20198;-74
2021/12/26 10:29:07;;;;;;;12.43;10.05;;;7.30;99.90;;;;;;5029661;28;20201;-74
2021/12/26 10:31:36;;;;;;;12.13;9.85;;;7.50;99.90;;;;;;5029609;28;20201;-74
2021/12/26 10:34:03;;;;;;;12.45;10.02;;;7.70;99.90;;;;;;5029758;28;20213;-74
2021/12/26 10:36:30;;;;;;;11.18;9.25;;;7.70;99.90;;;;;;5021674;28;20657;-74
2021/12/26 10:39:12;;;;;;;12.23;9.10;;;7.70;99.90;;;;;;5029127;28;20205;-74
2021/12/26 10:41:43;;;;;;;10.05;8.02;;;7.70;99.90;;;;;;5028067;28;20316;-73
2021/12/26 10:44:27;;;;;;;10.25;8.20;;;7.60;99.90;;;;;;5028546;28;20794;-74
2021/12/26 10:46:58;;;;;;;8.93;7.32;;;7.50;99.90;;;;;;5028622;28;20310;-75
2021/12/26 10:49:34;;;;;;;8.32;7.30;;;7.20;99.90;;;;;;5029668;28;20224;-76
2021/12/26 10:52:02;;;;;;;8.15;6.85;;;6.90;99.90;;;;;;5029099;28;20232;-75
2021/12/26 10:54:32;;;;;;;8.10;6.88;;;6.90;99.90;;;;;;5029452;28;20716;-75
2021/12/26 10:57:05;;;;;;;9.32;7.30;;;6.80;99.90;;;;;;5028373;28;20206;-75
2021/12/26 10:59:33;;;;;;;11.13;8.93;;;6.60;99.90;;;;;;5029259;28;20217;-73
2021/12/26 11:02:01;;;;;;;9.93;7.35;;;6.40;99.90;;;;;;5028503;28;20210;-73
2021/12/26 11:04:29;;;;;;;10.55;7.38;;;6.30;99.90;;;;;;5028879;28;20778;-74
2021/12/26 11:07:05;;;;;;;9.57;8.02;;;6.30;99.90;;;;;;5028758;28;20263;-74
2021/12/26 11:09:32;;;;;;;10.07;7.50;;;6.40;99.90;;;;;;5028268;28;20209;-73
2021/12/26 11:12:04;;;;;;;9.43;8.05;;;6.50;99.90;;;;;;5028453;28;20206;-74
2021/12/26 11:14:31;;;;;;;8.43;7.15;;;6.70;99.90;;;;;;5028711;28;20218;-74
2021/12/26 11:16:58;;;;;;;9.82;7.65;;;6.70;99.90;;;;;;5028384;28;20205;-74
2021/12/26 11:19:46;;;;;;;8.90;7.03;;;6.90;99.90;;;;;;5029299;28;20252;-74
2021/12/26 11:22:13;;;;;;;9.57;7.43;;;7.10;99.90;;;;;;5027846;28;20565;-74
2021/12/26 11:24:40;;;;;;;9.95;8.25;;;7.20;99.90;;;;;;5024923;28;20595;-74
2021/12/26 11:27:08;;;;;;;10.18;7.82;;;7.30;99.90;;;;;;5028977;28;20205;-74
2021/12/26 11:29:35;;;;;;;9.05;7.32;;;7.40;99.90;;;;;;5028359;28;20202;-74
2021/12/26 11:32:03;;;;;;;7.68;6.15;;;7.80;99.90;;;;;;5028658;28;20210;-72
2021/12/26 11:34:32;;;;;;;8.57;7.18;;;8.10;99.90;;;;;;5029134;28;20708;-75
2021/12/26 11:37:00;;;;;;;8.18;6.88;;;8.20;99.90;;;;;;5027991;28;20577;-75
2021/12/26 11:39:28;;;;;;;6.88;6.15;;;8.40;99.90;;;;;;5029288;28;20205;-75
2021/12/26 11:42:07;;;;;;;8.77;7.60;;;8.40;99.90;;;;;;5027935;28;20592;-75
2021/12/26 11:44:57;;;;;;;6.63;5.97;;;8.20;99.90;;;;;;5022019;28;20857;-75
2021/12/26 11:47:46;;;;;;;7.85;6.65;;;8.20;99.90;;;;;;5024597;28;20202;-75
2021/12/26 11:50:24;;;;;;;6.93;5.32;;;7.90;99.90;;;;;;5028059;28;20556;-75
2021/12/26 11:53:12;;;;;;;6.30;5.70;;;7.70;99.90;;;;;;5026598;28;20241;-75
2021/12/26 11:55:43;;;;;;;7.45;5.68;;;7.70;99.90;;;;;;5032141;28;20228;-75
2021/12/26 11:58:32;;;;;;;10.60;5.80;;;7.80;99.90;;;;;;5031413;28;20212;-75
2021/12/26 12:01:00;;;;;;;5.88;5.38;;;8.00;99.90;;;;;;5031200;28;20205;-76
2021/12/26 12:03:29;;;;;;;6.00;5.40;;;8.10;99.90;;;;;;5031727;28;20233;-75
2021/12/26 12:05:56;;;;;;;6.47;5.28;;;8.10;99.90;;;;;;5033139;28;20205;-75
2021/12/26 12:08:31;;;;;;;6.25;5.20;;;8.20;99.90;;;;;;5032671;28;20202;-75
2021/12/26 12:11:00;;;;;;;6.43;5.78;;;8.10;99.90;;;;;;5032899;28;20680;-75
2021/12/26 12:13:44;;;;;;;5.93;5.38;;;8.00;99.90;;;;;;5032965;28;20225;-75
2021/12/26 12:16:13;;;;;;;7.45;6.30;;;7.90;99.90;;;;;;5033589;28;20212;-75
2021/12/26 12:18:54;;;;;;;7.20;5.70;;;7.90;99.90;;;;;;5032786;28;20202;-75
2021/12/26 12:21:22;;;;;;;6.70;6.07;;;7.90;99.90;;;;;;5032910;28;20209;-75
2021/12/26 12:24:03;;;;;;;6.80;5.95;;;8.10;99.90;;;;;;5033421;28;20226;-75
2021/12/26 12:26:48;;;;;;;8.27;5.80;;;8.10;99.90;;;;;;5033397;28;20664;-76
2021/12/26 12:29:46;;;;;;;6.55;5.78;;;8.00;99.90;;;;;;5032006;28;20201;-76
2021/12/26 12:32:15;;;;;;;6.18;5.57;;;8.00;99.90;;;;;;5031748;28;20198;-76
2021/12/26 12:34:47;;;;;;;5.90;5.30;;;8.00;99.90;;;;;;5032461;28;20217;-76
2021/12/26 12:37:28;;;;;;;6.88;5.15;;;8.00;99.90;;;;;;5032647;28;20260;-76
2021/12/26 12:40:12;;;;;;;5.22;4.72;;;8.00;99.90;;;;;;5032955;28;20197;-75
2021/12/26 12:42:40;;;;;;;6.18;5.05;;;8.10;99.90;;;;;;5032051;28;20198;-76
2021/12/26 12:45:08;;;;;;;6.72;5.90;;;8.10;99.90;;;;;;5031852;28;20222;-76
2021/12/26 12:47:35;;;;;;;5.80;5.20;;;8.00;99.90;;;;;;5032561;28;20301;-75
2021/12/26 12:50:03;;;;;;;5.72;5.05;;;7.90;99.90;;;;;;5029045;28;20700;-76
2021/12/26 12:52:45;;;;;;;5.28;4.78;;;7.90;99.90;;;;;;5032088;28;20209;-76
2021/12/26 12:55:19;;;;;;;5.20;4.70;;;7.90;99.90;;;;;;5030041;28;20202;-75
2021/12/26 12:57:48;;;;;;;5.90;5.20;;;7.90;99.90;;;;;;5031997;28;20201;-76